createdAt,value
2022-11-24T00:00:11.750Z,76.78
2022-11-24T00:02:44.748Z,76.80
2022-11-24T00:05:17.215Z,77.54
2022-11-24T00:07:47.484Z,77.86
2022-11-24T00:10:16.610Z,78.02
2022-11-24T00:12:50.212Z,78.41
2022-11-24T00:15:20.087Z,78.53
2022-11-24T00:17:53.818Z,78.46
2022-11-24T00:20:24.127Z,78.50
2022-11-24T00:23:02.985Z,78.49
2022-11-24T00:25:32.118Z,79.02
2022-11-24T00:28:02.718Z,78.66
2022-11-24T00:30:32.989Z,78.85
2022-11-24T00:33:04.027Z,79.02
2022-11-24T00:35:35.433Z,78.70
2022-11-24T00:38:17.990Z,78.76
2022-11-24T00:40:59.607Z,78.70
2022-11-24T00:43:38.379Z,79.00
2022-11-24T00:46:15.898Z,78.93
2022-11-24T00:48:51.960Z,78.62
2022-11-24T00:51:25.259Z,77.80
2022-11-24T00:53:59.077Z,76.90
2022-11-24T00:56:27.502Z,76.20
2022-11-24T00:59:15.142Z,75.49
2022-11-24T01:01:46.332Z,75.01
2022-11-24T01:04:19.390Z,75.07
2022-11-24T01:06:52.292Z,74.18
2022-11-24T01:09:21.260Z,73.69
2022-11-24T01:12:06.076Z,73.51
2022-11-24T01:14:42.571Z,73.63
2022-11-24T01:17:09.970Z,74.08
2022-11-24T01:19:36.906Z,74.89
2022-11-24T01:22:10.763Z,74.49
2022-11-24T01:24:43.992Z,74.34
2022-11-24T01:27:18.874Z,74.70
2022-11-24T01:29:49.473Z,74.70
2022-11-24T01:32:20.820Z,74.63
2022-11-24T01:34:47.905Z,73.87
2022-11-24T01:37:15.256Z,74.67
2022-11-24T01:39:42.087Z,74.82
2022-11-24T01:42:15.002Z,74.47
2022-11-24T01:44:48.651Z,75.34
2022-11-24T01:47:48.075Z,75.09
2022-11-24T01:50:18.195Z,75.39
2022-11-24T01:52:52.262Z,75.32
2022-11-24T01:55:33.456Z,75.50
2022-11-24T01:58:33.825Z,75.16
2022-11-24T02:01:10.797Z,76.07
2022-11-24T02:03:48.251Z,75.09
2022-11-24T02:06:26.673Z,74.35
2022-11-24T02:09:00.571Z,74.28
2022-11-24T02:11:36.498Z,73.93
2022-11-24T02:14:09.681Z,72.01
2022-11-24T02:16:37.645Z,71.67
2022-11-24T02:19:14.946Z,71.34
2022-11-24T02:21:43.474Z,72.19
2022-11-24T02:24:31.226Z,72.72
2022-11-24T02:26:58.201Z,70.56
2022-11-24T02:29:25.105Z,70.25
2022-11-24T02:31:58.259Z,69.06
2022-11-24T02:34:25.093Z,67.91
2022-11-24T02:36:51.763Z,67.65
2022-11-24T02:39:18.799Z,67.57
2022-11-24T02:42:00.517Z,67.73
2022-11-24T02:44:33.170Z,67.65
2022-11-24T02:47:09.339Z,67.18
2022-11-24T02:49:36.569Z,68.25
2022-11-24T02:52:07.255Z,68.75
2022-11-24T02:54:36.760Z,69.49
2022-11-24T02:57:04.186Z,69.65
2022-11-24T02:59:32.834Z,69.95
2022-11-24T03:01:59.467Z,69.92
2022-11-24T03:04:33.192Z,69.90
2022-11-24T03:07:07.533Z,69.50
2022-11-24T03:12:15.120Z,69.27
2022-11-24T03:14:42.812Z,69.60
2022-11-24T03:17:09.779Z,69.93
2022-11-24T03:19:39.048Z,70.46
2022-11-24T03:22:07.781Z,70.55
2022-11-24T03:24:36.094Z,69.50
2022-11-24T03:27:06.266Z,68.77
2022-11-24T03:29:41.803Z,67.73
2022-11-24T03:32:12.592Z,67.80
2022-11-24T03:34:41.196Z,66.51
2022-11-24T03:37:07.841Z,67.45
2022-11-24T03:39:36.027Z,66.45
2022-11-24T03:42:06.248Z,66.15
2022-11-24T03:44:36.476Z,64.60
2022-11-24T03:47:03.444Z,64.22
2022-11-24T03:49:31.064Z,64.02
2022-11-24T03:52:08.584Z,62.60
2022-11-24T03:54:50.741Z,63.92
2022-11-24T03:57:29.382Z,64.74
2022-11-24T04:00:18.550Z,65.03
2022-11-24T04:02:49.076Z,64.41
2022-11-24T04:05:16.613Z,65.02
2022-11-24T04:07:53.457Z,64.31
2022-11-24T04:10:40.991Z,65.22
2022-11-24T04:13:14.057Z,65.28
2022-11-24T04:15:42.705Z,64.87
2022-11-24T04:18:11.548Z,65.47
2022-11-24T04:20:45.638Z,65.80
2022-11-24T04:23:12.443Z,66.14
2022-11-24T04:25:39.963Z,64.70
2022-11-24T04:28:06.896Z,63.65
2022-11-24T04:30:45.588Z,64.76
2022-11-24T04:33:14.401Z,63.98
2022-11-24T04:35:49.252Z,64.31
2022-11-24T04:39:22.762Z,63.46
2022-11-24T04:41:29.885Z,64.58
2022-11-24T04:44:05.421Z,63.64
2022-11-24T04:46:35.123Z,66.41
2022-11-24T04:49:03.578Z,65.54
2022-11-24T04:51:39.361Z,64.77
2022-11-24T04:54:23.963Z,66.59
2022-11-24T04:57:06.391Z,66.76
2022-11-24T04:59:48.644Z,67.75
2022-11-24T05:02:17.001Z,67.39
2022-11-24T05:04:44.753Z,67.54
2022-11-24T05:07:18.656Z,66.01
2022-11-24T05:10:06.144Z,66.88
2022-11-24T05:12:35.704Z,67.44
2022-11-24T05:15:06.279Z,68.64
2022-11-24T05:17:41.376Z,66.45
2022-11-24T05:20:08.514Z,65.90
2022-11-24T05:22:35.167Z,66.15
2022-11-24T05:25:02.133Z,66.76
2022-11-24T05:27:29.098Z,66.87
2022-11-24T05:29:59.019Z,68.60
2022-11-24T05:32:25.712Z,67.23
2022-11-24T05:34:59.683Z,66.90
2022-11-24T05:37:29.138Z,67.16
2022-11-24T05:39:55.696Z,65.42
2022-11-24T05:42:46.096Z,64.12
2022-11-24T05:45:17.295Z,65.81
2022-11-24T05:47:45.330Z,65.59
2022-11-24T05:50:18.964Z,64.87
2022-11-24T05:52:46.888Z,65.50
2022-11-24T05:55:19.689Z,66.47
2022-11-24T05:57:47.360Z,67.04
2022-11-24T06:00:18.161Z,67.38
2022-11-24T06:02:48.916Z,68.23
2022-11-24T06:05:16.282Z,68.21
2022-11-24T06:07:43.324Z,69.03
2022-11-24T06:10:10.694Z,67.99
2022-11-24T06:12:37.585Z,68.00
2022-11-24T06:15:08.124Z,66.88
2022-11-24T06:17:59.174Z,68.16
2022-11-24T06:20:32.662Z,68.87
2022-11-24T06:23:05.194Z,69.69
2022-11-24T06:25:32.087Z,70.31
2022-11-24T06:28:03.795Z,69.77
2022-11-24T06:30:33.770Z,69.96
2022-11-24T06:33:00.873Z,70.29
2022-11-24T06:35:27.996Z,71.25
2022-11-24T06:37:57.906Z,71.32
2022-11-24T06:40:32.833Z,70.55
2022-11-24T06:43:01.156Z,70.35
2022-11-24T06:45:31.288Z,70.64
2022-11-24T06:47:59.403Z,71.14
2022-11-24T06:50:36.468Z,71.41
2022-11-24T06:53:06.219Z,71.82
2022-11-24T06:55:41.788Z,71.70
2022-11-24T06:58:11.831Z,71.81
2022-11-24T07:00:48.220Z,72.09
2022-11-24T07:03:17.109Z,72.06
2022-11-24T07:05:54.529Z,72.43
2022-11-24T07:08:21.509Z,72.52
2022-11-24T07:10:48.899Z,72.04
2022-11-24T07:13:16.235Z,72.23
2022-11-24T07:15:46.275Z,71.83
2022-11-24T07:18:13.225Z,71.74
2022-11-24T07:20:40.307Z,72.22
2022-11-24T07:23:07.125Z,71.93
2022-11-24T07:25:35.519Z,72.16
2022-11-24T07:28:03.071Z,71.92
2022-11-24T07:30:32.727Z,72.55
2022-11-24T07:33:06.766Z,72.11
2022-11-24T07:35:34.192Z,70.60
2022-11-24T07:38:04.753Z,71.40
2022-11-24T07:40:31.799Z,70.46
2022-11-24T07:43:01.315Z,70.06
2022-11-24T07:45:28.911Z,69.58
2022-11-24T07:47:57.164Z,69.79
2022-11-24T07:50:25.632Z,70.25
2022-11-24T07:52:53.390Z,70.10
2022-11-24T07:55:23.445Z,70.24
2022-11-24T07:57:50.401Z,69.73
2022-11-24T08:00:19.691Z,69.12
2022-11-24T08:02:46.293Z,69.26
2022-11-24T08:05:13.151Z,68.56
2022-11-24T08:07:39.757Z,67.95
2022-11-24T08:10:07.201Z,68.23
2022-11-24T08:12:33.905Z,67.77
2022-11-24T08:15:00.694Z,69.00
2022-11-24T08:17:31.461Z,67.84
2022-11-24T08:19:58.066Z,67.50
2022-11-24T08:22:24.652Z,67.02
2022-11-24T08:25:06.586Z,66.38
2022-11-24T08:27:33.791Z,65.92
2022-11-24T08:30:02.074Z,66.13
2022-11-24T08:32:30.552Z,63.85
2022-11-24T08:35:18.667Z,64.07
2022-11-24T08:38:04.681Z,58.38
2022-11-24T08:40:36.507Z,57.84
2022-11-24T08:43:03.914Z,57.07
2022-11-24T08:45:39.861Z,59.89
2022-11-24T08:48:11.694Z,59.82
2022-11-24T08:50:51.186Z,61.21
2022-11-24T08:53:22.893Z,60.61
2022-11-24T08:55:53.027Z,60.42
2022-11-24T08:58:44.292Z,59.88
2022-11-24T09:01:21.137Z,57.54
2022-11-24T09:03:56.673Z,57.00
2022-11-24T09:06:33.784Z,56.40
2022-11-24T09:09:12.525Z,55.23
2022-11-24T09:11:40.234Z,55.88
2022-11-24T09:14:11.176Z,56.78
2022-11-24T09:16:41.398Z,57.72
2022-11-24T09:19:27.784Z,57.11
2022-11-24T09:21:59.754Z,58.29
2022-11-24T09:24:32.076Z,55.21
2022-11-24T09:27:02.159Z,58.88
2022-11-24T09:29:29.975Z,58.18
2022-11-24T09:32:05.120Z,57.94
2022-11-24T09:34:33.304Z,55.85
2022-11-24T09:37:01.906Z,56.44
2022-11-24T09:39:28.482Z,53.24
2022-11-24T09:42:02.390Z,53.97
2022-11-24T09:45:22.868Z,57.10
2022-11-24T09:48:03.848Z,56.67
2022-11-24T09:50:57.635Z,54.54
2022-11-24T09:54:03.063Z,57.64
2022-11-24T09:56:34.984Z,56.45
2022-11-24T09:59:28.528Z,54.40
2022-11-24T10:01:56.686Z,58.03
2022-11-24T10:04:42.320Z,53.91
2022-11-24T10:07:12.040Z,54.96
2022-11-24T10:10:10.780Z,52.76
2022-11-24T10:13:15.229Z,53.21
2022-11-24T10:19:33.914Z,54.25
2022-11-24T10:22:38.407Z,52.54
2022-11-24T10:25:35.457Z,52.67
2022-11-24T10:28:06.079Z,54.52
2022-11-24T10:30:37.035Z,55.46
2022-11-24T10:33:27.091Z,54.72
2022-11-24T10:36:14.424Z,56.44
2022-11-24T10:39:20.076Z,54.51
2022-11-24T10:41:58.248Z,55.34
2022-11-24T10:44:26.213Z,53.16
2022-11-24T10:46:53.267Z,51.27
2022-11-24T10:49:30.405Z,50.94
2022-11-24T10:52:22.522Z,53.25
2022-11-24T10:55:01.846Z,52.98
2022-11-24T10:57:42.452Z,52.34
2022-11-24T11:00:33.830Z,53.15
2022-11-24T11:03:23.893Z,52.38
2022-11-24T11:06:14.639Z,53.79
2022-11-24T11:09:03.275Z,55.40
2022-11-24T11:11:40.161Z,54.07
2022-11-24T11:14:14.565Z,54.37
2022-11-24T11:17:00.652Z,55.03
2022-11-24T11:20:04.535Z,56.42
2022-11-24T11:25:57.895Z,53.54
2022-11-24T11:28:35.581Z,55.39
2022-11-24T11:31:22.394Z,54.61
2022-11-24T11:34:42.827Z,53.67
2022-11-24T11:37:47.904Z,55.65
2022-11-24T11:40:29.646Z,52.96
2022-11-24T11:43:33.258Z,53.75
2022-11-24T11:46:13.542Z,53.75
2022-11-24T11:48:45.100Z,54.46
2022-11-24T11:52:01.955Z,54.13
2022-11-24T11:54:45.952Z,52.59
2022-11-24T11:57:47.525Z,51.87
2022-11-24T12:00:24.808Z,55.11
2022-11-24T12:03:16.605Z,54.82
2022-11-24T12:06:22.604Z,54.24
2022-11-24T12:09:28.043Z,54.48
2022-11-24T12:12:22.835Z,53.43
2022-11-24T12:15:01.086Z,54.65
2022-11-24T12:18:03.924Z,54.93
2022-11-24T12:20:57.044Z,55.87
2022-11-24T12:24:07.501Z,54.84
2022-11-24T12:27:27.776Z,53.08
2022-11-24T12:30:16.905Z,56.73
2022-11-24T12:33:25.706Z,56.28
2022-11-24T12:36:03.611Z,55.99
2022-11-24T12:38:57.081Z,55.10
2022-11-24T12:41:55.887Z,55.95
2022-11-24T12:44:52.277Z,53.90
2022-11-24T12:47:52.084Z,52.84
2022-11-24T12:50:23.211Z,54.16
2022-11-24T12:53:28.089Z,53.61
2022-11-24T12:56:13.286Z,54.40
2022-11-24T12:58:59.288Z,55.33
2022-11-24T13:01:49.940Z,52.85
2022-11-24T13:04:42.877Z,54.08
2022-11-24T13:07:17.036Z,54.22
2022-11-24T13:10:40.096Z,51.00
2022-11-24T13:13:19.703Z,54.07
2022-11-24T13:19:17.068Z,53.72
2022-11-24T13:21:45.841Z,54.09
2022-11-24T13:24:40.879Z,52.51
2022-11-24T13:27:16.915Z,50.83
2022-11-24T13:29:49.870Z,54.14
2022-11-24T13:32:22.579Z,51.88
2022-11-24T13:34:55.265Z,52.23
2022-11-24T13:37:35.219Z,53.57
2022-11-24T13:40:12.099Z,55.23
2022-11-24T13:43:01.663Z,53.29
2022-11-24T13:45:41.217Z,56.21
2022-11-24T13:48:23.314Z,53.75
2022-11-24T13:50:49.941Z,54.46
2022-11-24T13:53:33.115Z,54.71
2022-11-24T13:56:25.614Z,55.18
2022-11-24T13:59:06.497Z,54.49
2022-11-24T14:01:37.140Z,54.65
2022-11-24T14:04:43.302Z,54.26
2022-11-24T14:07:15.476Z,55.13
2022-11-24T14:09:50.386Z,54.95
2022-11-24T14:12:22.240Z,57.18
2022-11-24T14:15:05.395Z,56.49
2022-11-24T14:17:35.040Z,57.15
2022-11-24T14:20:32.483Z,58.18
2022-11-24T14:23:08.436Z,56.88
2022-11-24T14:25:38.085Z,56.41
2022-11-24T14:28:22.107Z,56.79
2022-11-24T14:30:49.295Z,57.65
2022-11-24T14:33:24.004Z,58.41
2022-11-24T14:35:53.640Z,57.30
2022-11-24T14:38:20.640Z,56.94
2022-11-24T14:40:51.733Z,58.61
2022-11-24T14:43:27.892Z,57.68
2022-11-24T14:46:03.031Z,57.59
2022-11-24T14:48:53.222Z,58.66
2022-11-24T14:51:43.280Z,58.58
2022-11-24T14:54:19.449Z,59.79
2022-11-24T14:57:04.769Z,59.73
2022-11-24T14:59:40.261Z,60.55
2022-11-24T15:03:08.207Z,61.47
2022-11-24T15:06:04.376Z,61.10
2022-11-24T15:08:38.723Z,60.65
2022-11-24T15:11:08.454Z,60.82
2022-11-24T15:13:53.802Z,60.23
2022-11-24T15:16:25.739Z,61.33
2022-11-24T15:19:02.807Z,62.32
2022-11-24T15:21:34.525Z,62.14
2022-11-24T15:24:29.669Z,63.14
2022-11-24T15:27:01.776Z,62.97
2022-11-24T15:29:30.067Z,63.46
2022-11-24T15:31:59.163Z,64.48
2022-11-24T15:34:27.332Z,65.30
2022-11-24T15:36:54.279Z,64.56
2022-11-24T15:39:21.440Z,64.74
2022-11-24T15:42:00.747Z,65.39
2022-11-24T15:44:30.056Z,65.81
2022-11-24T15:46:59.699Z,66.04
2022-11-24T15:49:28.013Z,65.14
2022-11-24T15:52:00.440Z,64.75
2022-11-24T15:54:30.046Z,64.69
2022-11-24T15:56:56.703Z,64.88
2022-11-24T15:59:23.323Z,66.45
2022-11-24T16:01:50.927Z,66.47
2022-11-24T16:04:17.821Z,66.33
2022-11-24T16:06:45.013Z,66.83
2022-11-24T16:09:15.746Z,67.00
2022-11-24T16:11:42.498Z,67.90
2022-11-24T16:14:14.003Z,67.24
2022-11-24T16:16:43.634Z,67.74
2022-11-24T16:19:15.920Z,68.25
2022-11-24T16:21:48.661Z,68.75
2022-11-24T16:24:17.705Z,68.27
2022-11-24T16:26:48.981Z,68.81
2022-11-24T16:29:21.608Z,68.57
2022-11-24T16:31:50.594Z,69.02
2022-11-24T16:34:20.957Z,68.72
2022-11-24T16:36:52.508Z,69.29
2022-11-24T16:39:20.526Z,70.07
2022-11-24T16:41:48.711Z,69.72
2022-11-24T16:44:16.296Z,69.84
2022-11-24T16:46:44.767Z,70.51
2022-11-24T16:49:16.808Z,70.13
2022-11-24T16:51:50.196Z,70.43
2022-11-24T16:54:25.958Z,69.78
2022-11-24T16:56:56.963Z,69.81
2022-11-24T16:59:28.691Z,69.49
2022-11-24T17:02:04.397Z,69.98
2022-11-24T17:04:35.012Z,69.16
2022-11-24T17:07:02.414Z,69.32
2022-11-24T17:09:40.540Z,69.45
2022-11-24T17:12:08.219Z,69.17
2022-11-24T17:14:35.472Z,69.60
2022-11-24T17:17:04.839Z,70.56
2022-11-24T17:19:32.065Z,70.28
2022-11-24T17:22:00.493Z,70.50
2022-11-24T17:24:27.675Z,70.46
2022-11-24T17:26:54.486Z,70.03
2022-11-24T17:29:23.706Z,70.57
2022-11-24T17:31:56.119Z,69.56
2022-11-24T17:34:25.678Z,68.38
2022-11-24T17:36:53.096Z,69.87
2022-11-24T17:39:24.712Z,70.22
2022-11-24T17:41:51.841Z,70.12
2022-11-24T17:44:18.557Z,68.70
2022-11-24T17:46:45.510Z,68.57
2022-11-24T17:49:13.278Z,70.95
2022-11-24T17:51:40.285Z,70.13
2022-11-24T17:57:05.025Z,70.55
2022-11-24T17:59:37.685Z,70.03
2022-11-24T18:02:06.404Z,71.49
2022-11-24T18:04:36.186Z,70.18
2022-11-24T18:07:04.915Z,71.65
2022-11-24T18:09:31.610Z,70.22
2022-11-24T18:12:02.063Z,69.80
2022-11-24T18:14:37.700Z,70.94
2022-11-24T18:17:11.075Z,70.32
2022-11-24T18:19:49.350Z,70.68
2022-11-24T18:22:31.426Z,71.81
2022-11-24T18:25:06.847Z,71.26
2022-11-24T18:27:33.487Z,70.57
2022-11-24T18:30:00.133Z,68.99
2022-11-24T18:32:26.850Z,68.53
2022-11-24T18:34:54.193Z,68.56
2022-11-24T18:37:20.730Z,68.04
2022-11-24T18:39:47.416Z,66.75
2022-11-24T18:42:14.153Z,66.68
2022-11-24T18:44:42.398Z,67.18
2022-11-24T18:47:09.125Z,68.35
2022-11-24T18:49:35.800Z,69.96
2022-11-24T18:52:02.455Z,69.80
2022-11-24T18:54:30.067Z,71.21
2022-11-24T18:57:02.974Z,69.01
2022-11-24T18:59:32.838Z,69.35
2022-11-24T19:01:59.652Z,70.17
2022-11-24T19:04:26.554Z,69.48
2022-11-24T19:07:09.762Z,69.00
2022-11-24T19:09:37.953Z,69.60
2022-11-24T19:12:06.271Z,71.90
2022-11-24T19:14:36.117Z,71.26
2022-11-24T19:17:04.001Z,69.78
2022-11-24T19:19:34.295Z,68.13
2022-11-24T19:22:01.841Z,66.79
2022-11-24T19:24:28.930Z,66.75
2022-11-24T19:26:59.130Z,66.41
2022-11-24T19:29:26.035Z,64.85
2022-11-24T19:31:56.263Z,66.30
2022-11-24T19:34:22.887Z,66.61
2022-11-24T19:36:49.567Z,65.31
2022-11-24T19:39:16.860Z,64.36
2022-11-24T19:41:43.798Z,65.22
2022-11-24T19:44:13.676Z,64.72
2022-11-24T19:46:40.790Z,65.43
2022-11-24T19:49:10.672Z,62.50
2022-11-24T19:51:39.762Z,65.84
2022-11-24T19:54:08.201Z,66.54
2022-11-24T19:56:36.549Z,64.86
2022-11-24T19:59:07.354Z,64.63
2022-11-24T20:01:39.823Z,66.19
2022-11-24T20:04:12.822Z,66.66
2022-11-24T20:06:56.092Z,67.20
2022-11-24T20:09:26.893Z,67.02
2022-11-24T20:11:53.812Z,69.42
2022-11-24T20:14:22.181Z,69.58
2022-11-24T20:16:49.515Z,67.76
2022-11-24T20:19:18.012Z,67.28
2022-11-24T20:21:50.162Z,62.89
2022-11-24T20:24:20.240Z,64.82
2022-11-24T20:26:52.474Z,63.32
2022-11-24T20:29:22.462Z,64.09
2022-11-24T20:31:56.253Z,68.10
2022-11-24T20:34:23.951Z,64.96
2022-11-24T20:36:53.147Z,68.18
2022-11-24T20:39:28.806Z,68.12
2022-11-24T20:42:00.635Z,66.46
2022-11-24T20:44:30.252Z,69.71
2022-11-24T20:47:02.956Z,68.98
2022-11-24T20:49:30.374Z,66.74
2022-11-24T20:52:04.068Z,66.56
2022-11-24T20:54:35.144Z,66.89
2022-11-24T20:57:04.161Z,68.51
2022-11-24T20:59:31.361Z,69.37
2022-11-24T21:02:02.081Z,67.22
2022-11-24T21:04:35.325Z,67.93
2022-11-24T21:07:16.439Z,66.68
2022-11-24T21:09:43.751Z,69.57
2022-11-24T21:12:11.790Z,69.85
2022-11-24T21:14:40.935Z,69.13
2022-11-24T21:17:09.118Z,67.78
2022-11-24T21:19:38.206Z,68.04
2022-11-24T21:22:07.974Z,67.04
2022-11-24T21:24:42.583Z,65.00
2022-11-24T21:27:13.250Z,65.60
2022-11-24T21:29:44.473Z,68.72
2022-11-24T21:32:12.022Z,69.13
2022-11-24T21:34:45.412Z,66.89
2022-11-24T21:37:39.707Z,68.16
2022-11-24T21:40:20.089Z,68.94
2022-11-24T21:42:59.207Z,68.67
2022-11-24T21:45:41.764Z,70.76
2022-11-24T21:52:23.643Z,70.24
2022-11-24T21:53:27.134Z,71.55
2022-11-24T21:55:02.671Z,71.41
2022-11-24T21:57:30.842Z,70.57
2022-11-24T22:00:07.784Z,70.48
2022-11-24T22:02:40.847Z,70.32
2022-11-24T22:05:11.300Z,70.25
2022-11-24T22:07:38.412Z,72.17
2022-11-24T22:10:10.824Z,71.82
2022-11-24T22:12:38.381Z,71.71
2022-11-24T22:15:07.401Z,71.15
2022-11-24T22:17:34.253Z,72.19
2022-11-24T22:20:15.751Z,72.04
2022-11-24T22:22:48.558Z,70.37
2022-11-24T22:25:33.404Z,71.84
2022-11-24T22:28:01.768Z,69.20
2022-11-24T22:30:41.125Z,72.67
2022-11-24T22:33:15.730Z,67.64
2022-11-24T22:35:45.549Z,70.89
2022-11-24T22:38:22.048Z,70.37
2022-11-24T22:40:53.120Z,68.78
2022-11-24T22:43:30.110Z,71.66
2022-11-24T22:50:12.028Z,70.25
2022-11-24T22:52:58.542Z,72.00
2022-11-24T22:55:36.040Z,71.33
2022-11-24T22:58:07.056Z,69.30
2022-11-24T23:00:38.225Z,68.47
2022-11-24T23:03:05.694Z,70.97
2022-11-24T23:05:34.312Z,70.53
2022-11-24T23:08:02.502Z,70.12
2022-11-24T23:10:30.099Z,71.31
2022-11-24T23:15:50.881Z,74.44
2022-11-24T23:18:18.935Z,72.98
2022-11-24T23:20:52.822Z,72.92
2022-11-24T23:23:22.860Z,73.82
2022-11-24T23:25:55.776Z,72.85
2022-11-24T23:28:28.433Z,70.34
2022-11-24T23:31:05.518Z,71.02
2022-11-24T23:33:34.861Z,70.12
2022-11-24T23:36:05.966Z,71.13
2022-11-24T23:38:33.554Z,69.89
2022-11-24T23:41:08.747Z,73.21
2022-11-24T23:43:40.691Z,71.19
2022-11-24T23:46:15.317Z,70.92
2022-11-24T23:48:42.720Z,73.80
2022-11-24T23:51:23.405Z,71.59
2022-11-24T23:53:54.456Z,69.19
2022-11-24T23:56:23.797Z,70.79
2022-11-24T23:58:51.476Z,70.78
